Time;durP1;ratioP1;P1;durP2;ratioP2;P2;SDS_P1;SDS_P2;PMS_P1;PMS_P2;Temp;Humidity;BMP_temperature;BMP_pressure;BME280_temperature;BME280_humidity;BME280_pressure;Samples;Min_cycle;Max_cycle;Signal;HPM_P1;HPM_P2
2020/12/22 00:01:15;;;;;;;31.27;18.38;;;179.40;1868.80;;;;;;5072060;28;20020;-61
2020/12/22 00:03:41;;;;;;;29.00;17.45;;;179.50;1868.80;;;;;;5072374;28;20386;-64
2020/12/22 00:06:08;;;;;;;32.58;18.65;;;179.40;1868.80;;;;;;5072121;28;20070;-61
2020/12/22 00:08:33;;;;;;;30.73;17.30;;;179.30;1894.40;;;;;;5072776;28;20044;-63
2020/12/22 00:10:59;;;;;;;30.90;18.58;;;179.30;1894.40;;;;;;5071832;28;20048;-65
2020/12/22 00:13:25;;;;;;;30.63;17.70;;;179.40;1868.80;;;;;;5072463;28;20040;-61
2020/12/22 00:15:51;;;;;;;32.50;17.90;;;179.30;1894.40;;;;;;5054322;28;20021;-61
2020/12/22 00:18:17;;;;;;;31.92;17.70;;;179.30;1894.40;;;;;;5071987;28;20068;-60
2020/12/22 00:20:43;;;;;;;29.83;18.80;;;179.20;1894.40;;;;;;5072442;28;20052;-60
2020/12/22 00:23:09;;;;;;;32.13;17.98;;;179.30;1894.40;;;;;;5071943;28;20078;-61
2020/12/22 00:25:43;;;;;;;31.02;18.02;;;179.30;1894.40;;;;;;5072001;28;20020;-61
2020/12/22 00:28:09;;;;;;;30.77;18.00;;;179.40;1894.40;;;;;;5071947;28;20024;-63
2020/12/22 00:30:35;;;;;;;29.55;16.77;;;179.40;1868.80;;;;;;5072138;28;20096;-60
2020/12/22 00:33:01;;;;;;;29.80;16.98;;;179.40;1868.80;;;;;;5072798;28;20082;-60
2020/12/22 00:35:26;;;;;;;27.75;16.52;;;179.50;1868.80;;;;;;5076181;28;20029;-60
2020/12/22 00:37:52;;;;;;;29.67;17.55;;;179.40;1894.40;;;;;;5076111;28;20529;-59
2020/12/22 00:40:18;;;;;;;28.15;16.58;;;179.40;1868.80;;;;;;5074389;28;20112;-60
2020/12/22 00:42:43;;;;;;;28.08;16.42;;;179.40;1894.40;;;;;;5075849;28;20029;-59
2020/12/22 00:45:09;;;;;;;28.35;16.25;;;179.40;1894.40;;;;;;5076112;28;20052;-59
2020/12/22 00:47:35;;;;;;;32.67;18.90;;;179.30;1894.40;;;;;;5075874;28;20024;-59
2020/12/22 00:50:00;;;;;;;28.42;16.10;;;179.20;1894.40;;;;;;5076020;28;20036;-60
2020/12/22 00:52:26;;;;;;;30.15;16.88;;;179.20;1894.40;;;;;;5075533;28;20074;-59
2020/12/22 00:54:52;;;;;;;32.60;16.88;;;179.20;1894.40;;;;;;5075808;28;20024;-62
2020/12/22 00:57:17;;;;;;;30.75;17.48;;;179.20;1894.40;;;;;;5075849;28;20028;-64
2020/12/22 00:59:43;;;;;;;27.48;16.48;;;154.50;1920.00;;;;;;5075634;28;20036;-60
2020/12/22 01:02:09;;;;;;;29.88;17.25;;;179.20;1894.40;;;;;;5075720;28;20036;-62
2020/12/22 01:04:34;;;;;;;29.52;16.80;;;179.20;1894.40;;;;;;5075612;28;20085;-60
2020/12/22 01:07:00;;;;;;;27.95;16.45;;;154.50;1920.00;;;;;;5057050;28;20049;-61
2020/12/22 01:09:26;;;;;;;27.38;17.00;;;154.50;1920.00;;;;;;5075323;28;20028;-59
2020/12/22 01:11:52;;;;;;;29.42;17.17;;;154.50;1920.00;;;;;;5075161;28;20027;-59
2020/12/22 01:14:18;;;;;;;25.33;15.10;;;179.20;1920.00;;;;;;5075280;28;20047;-59
2020/12/22 01:16:44;;;;;;;24.83;15.15;;;179.20;1920.00;;;;;;5075399;28;20020;-60
2020/12/22 01:19:10;;;;;;;27.35;15.13;;;179.20;1894.40;;;;;;5075285;28;20041;-61
2020/12/22 01:21:35;;;;;;;28.50;16.30;;;154.50;1920.00;;;;;;5075176;28;20100;-59
2020/12/22 01:24:04;;;;;;;27.70;15.82;;;154.50;1920.00;;;;;;5075468;28;20450;-59
2020/12/22 01:26:30;;;;;;;28.15;14.90;;;154.50;1920.00;;;;;;5074893;28;20082;-58
2020/12/22 01:28:55;;;;;;;23.67;15.13;;;154.40;1920.00;;;;;;5075287;28;20036;-58
2020/12/22 01:31:26;;;;;;;27.95;15.18;;;154.50;1920.00;;;;;;5074728;28;20044;-58
2020/12/22 01:33:53;;;;;;;27.00;14.77;;;154.50;1894.40;;;;;;5075261;28;20103;-58
2020/12/22 01:36:20;;;;;;;24.70;15.13;;;154.50;1894.40;;;;;;5075405;28;20458;-59
2020/12/22 01:38:46;;;;;;;26.10;14.95;;;179.30;1894.40;;;;;;5074676;28;20067;-58
2020/12/22 01:41:13;;;;;;;30.60;16.25;;;179.20;1894.40;;;;;;5074781;28;20056;-58
2020/12/22 01:43:38;;;;;;;26.42;15.77;;;179.30;1868.80;;;;;;5074863;28;20082;-58
2020/12/22 01:46:05;;;;;;;26.80;15.60;;;179.40;1868.80;;;;;;5073875;28;20058;-58
2020/12/22 01:48:32;;;;;;;26.80;14.73;;;179.30;1868.80;;;;;;5074732;28;20028;-58
2020/12/22 01:50:58;;;;;;;23.73;13.98;;;179.50;1868.80;;;;;;5074821;28;20056;-60
2020/12/22 01:53:24;;;;;;;27.10;15.73;;;179.30;1868.80;;;;;;5074932;28;20471;-58
2020/12/22 01:55:50;;;;;;;27.55;14.93;;;179.30;1868.80;;;;;;5075120;28;20025;-58
2020/12/22 01:58:15;;;;;;;25.80;14.73;;;179.30;1868.80;;;;;;5074482;28;20036;-58
2020/12/22 02:00:42;;;;;;;23.55;14.32;;;179.30;1868.80;;;;;;5074323;28;20023;-58
2020/12/22 02:03:08;;;;;;;23.27;14.15;;;179.30;1894.40;;;;;;5074503;28;20032;-59
2020/12/22 02:05:37;;;;;;;23.50;14.02;;;179.30;1868.80;;;;;;5074443;28;20169;-58
2020/12/22 02:08:04;;;;;;;24.08;14.77;;;179.20;1868.80;;;;;;5074480;28;20493;-59
2020/12/22 02:10:29;;;;;;;26.85;15.38;;;179.30;1894.40;;;;;;5072760;28;20037;-60
2020/12/22 02:12:55;;;;;;;23.20;14.55;;;179.40;1868.80;;;;;;5074193;28;20040;-57
2020/12/22 02:15:20;;;;;;;29.42;15.63;;;179.50;1868.80;;;;;;5074208;28;20025;-58
2020/12/22 02:17:46;;;;;;;23.60;14.07;;;179.50;1868.80;;;;;;5074279;28;20032;-58
2020/12/22 02:20:12;;;;;;;26.38;16.23;;;179.50;1868.80;;;;;;5073964;28;20091;-59
2020/12/22 02:22:39;;;;;;;23.83;13.68;;;179.40;1868.80;;;;;;5074265;28;20095;-58
2020/12/22 02:25:16;;;;;;;23.75;13.95;;;179.50;1868.80;;;;;;5074308;28;20074;-58
2020/12/22 02:27:42;;;;;;;26.00;15.30;;;179.60;1843.20;;;;;;5060466;28;20021;-57
2020/12/22 02:30:08;;;;;;;25.67;14.70;;;179.50;1843.20;;;;;;5074018;28;20031;-58
2020/12/22 02:32:34;;;;;;;22.98;14.35;;;179.30;1868.80;;;;;;5074009;28;20035;-58
2020/12/22 02:35:00;;;;;;;24.02;14.52;;;179.50;1843.20;;;;;;5073848;28;20103;-58
2020/12/22 02:37:26;;;;;;;25.10;14.48;;;179.50;1843.20;;;;;;5073758;28;20051;-59
2020/12/22 02:39:51;;;;;;;24.15;15.52;;;179.40;1868.80;;;;;;5073959;28;20036;-58
2020/12/22 02:42:17;;;;;;;23.65;14.38;;;179.60;1843.20;;;;;;5073769;28;20050;-58
2020/12/22 02:44:43;;;;;;;25.83;14.45;;;179.50;1843.20;;;;;;5073798;28;20103;-61
2020/12/22 02:47:14;;;;;;;24.77;14.57;;;179.40;1843.20;;;;;;5073466;28;20036;-58
2020/12/22 02:49:43;;;;;;;22.65;13.77;;;179.40;1868.80;;;;;;5073675;28;20020;-60
2020/12/22 02:52:10;;;;;;;21.60;13.57;;;179.40;1868.80;;;;;;5073630;28;20016;-59
2020/12/22 02:54:36;;;;;;;24.05;14.93;;;179.50;1843.20;;;;;;5073946;28;20713;-58
2020/12/22 02:57:02;;;;;;;21.63;13.57;;;179.50;1843.20;;;;;;5073304;28;20024;-59
2020/12/22 02:59:28;;;;;;;23.77;14.02;;;179.40;1843.20;;;;;;5073154;28;20037;-58
2020/12/22 03:01:54;;;;;;;24.92;14.52;;;179.30;1843.20;;;;;;5073437;28;20024;-58
2020/12/22 03:04:20;;;;;;;25.98;15.68;;;179.30;1868.80;;;;;;5073504;28;20040;-57
2020/12/22 03:06:45;;;;;;;24.35;14.93;;;179.20;1868.80;;;;;;5073132;28;20071;-61
2020/12/22 03:09:11;;;;;;;26.95;15.88;;;179.30;1868.80;;;;;;5072984;28;20114;-58
2020/12/22 03:11:37;;;;;;;23.35;13.80;;;179.30;1868.80;;;;;;5072292;28;20036;-58
2020/12/22 03:14:03;;;;;;;23.10;13.95;;;154.50;1894.40;;;;;;5072609;28;20032;-60
2020/12/22 03:16:28;;;;;;;22.40;12.82;;;179.20;1894.40;;;;;;5071945;28;20028;-59
2020/12/22 03:18:54;;;;;;;23.73;13.68;;;154.50;1894.40;;;;;;5072277;28;20040;-60
2020/12/22 03:21:20;;;;;;;25.88;14.63;;;179.30;1868.80;;;;;;5072515;28;20522;-59
2020/12/22 03:23:46;;;;;;;23.10;14.27;;;179.30;1868.80;;;;;;5072574;28;20032;-59
2020/12/22 03:26:12;;;;;;;22.83;14.27;;;179.20;1868.80;;;;;;5072611;28;20524;-59
2020/12/22 03:28:38;;;;;;;25.65;13.38;;;179.20;1894.40;;;;;;5072366;28;20107;-59
2020/12/22 03:31:03;;;;;;;24.17;14.27;;;154.50;1894.40;;;;;;5072845;28;20036;-57
2020/12/22 03:33:29;;;;;;;25.33;14.18;;;179.20;1894.40;;;;;;5071436;28;20071;-59
2020/12/22 03:35:55;;;;;;;26.73;14.98;;;154.50;1894.40;;;;;;5072780;28;20107;-59
2020/12/22 03:38:21;;;;;;;24.85;13.93;;;154.50;1894.40;;;;;;5072681;28;20050;-59
2020/12/22 03:40:47;;;;;;;22.92;13.73;;;154.50;1894.40;;;;;;5072403;28;20024;-59
2020/12/22 03:43:13;;;;;;;26.05;15.10;;;154.50;1920.00;;;;;;5072592;28;20035;-59
2020/12/22 03:45:39;;;;;;;23.02;14.18;;;154.40;1920.00;;;;;;5072898;28;20020;-59
2020/12/22 03:48:05;;;;;;;25.50;15.10;;;154.20;1945.60;;;;;;5072494;28;20048;-59
2020/12/22 03:50:31;;;;;;;25.88;14.10;;;154.10;1945.60;;;;;;5072310;28;20052;-59
2020/12/22 03:53:00;;;;;;;26.58;14.20;;;154.10;1945.60;;;;;;5072295;28;20025;-59
2020/12/22 03:55:26;;;;;;;27.17;15.55;;;154.00;1971.20;;;;;;5072622;28;20040;-59
2020/12/22 03:57:52;;;;;;;27.63;14.77;;;154.00;1971.20;;;;;;5072178;28;20028;-59
2020/12/22 04:00:18;;;;;;;28.02;15.50;;;154.00;1945.60;;;;;;5072248;28;20032;-59
2020/12/22 04:02:43;;;;;;;27.45;14.90;;;153.90;1971.20;;;;;;5072306;28;20016;-59
2020/12/22 04:05:10;;;;;;;26.15;14.80;;;154.00;1971.20;;;;;;5072025;28;20115;-59
2020/12/22 04:07:36;;;;;;;24.27;14.43;;;154.00;1971.20;;;;;;5071812;28;20407;-60
2020/12/22 04:10:03;;;;;;;25.27;14.32;;;154.00;1971.20;;;;;;5072483;28;20028;-59
2020/12/22 04:12:29;;;;;;;25.42;14.90;;;154.00;1971.20;;;;;;5072091;28;20507;-59
2020/12/22 04:14:55;;;;;;;25.17;13.98;;;153.90;1971.20;;;;;;5054723;28;20501;-59
2020/12/22 04:17:20;;;;;;;27.75;14.82;;;154.00;1971.20;;;;;;5072177;28;20355;-59
2020/12/22 04:19:46;;;;;;;32.67;16.80;;;154.00;1971.20;;;;;;5072403;28;20029;-59
2020/12/22 04:22:12;;;;;;;30.73;16.75;;;153.80;1996.80;;;;;;5071936;28;20107;-59
2020/12/22 04:24:38;;;;;;;26.77;15.18;;;153.80;1996.80;;;;;;5072310;28;20024;-59
2020/12/22 04:27:03;;;;;;;26.77;15.70;;;153.80;1996.80;;;;;;5072302;28;20071;-59
2020/12/22 04:29:29;;;;;;;25.45;14.38;;;153.70;1996.80;;;;;;5071953;28;20466;-59
2020/12/22 04:31:55;;;;;;;26.13;16.52;;;153.70;1996.80;;;;;;5072423;28;20029;-59
2020/12/22 04:34:21;;;;;;;26.15;14.02;;;153.70;1996.80;;;;;;5072248;28;20032;-59
2020/12/22 04:36:46;;;;;;;22.88;14.85;;;153.70;1996.80;;;;;;5071923;28;20070;-59
2020/12/22 04:39:12;;;;;;;27.52;15.30;;;153.80;1996.80;;;;;;5071942;28;20502;-59
2020/12/22 04:41:41;;;;;;;31.23;16.02;;;153.70;1996.80;;;;;;5070506;28;20099;-59
2020/12/22 04:44:07;;;;;;;23.77;14.45;;;153.90;1971.20;;;;;;5053795;28;20413;-59
2020/12/22 04:46:34;;;;;;;24.73;14.88;;;153.80;1971.20;;;;;;5072728;28;20032;-59
2020/12/22 04:49:00;;;;;;;30.13;15.98;;;153.90;1971.20;;;;;;5072209;28;20043;-59
2020/12/22 04:51:26;;;;;;;25.73;15.55;;;153.80;1996.80;;;;;;5071892;28;20021;-58
2020/12/22 04:53:52;;;;;;;25.50;13.73;;;153.80;1971.20;;;;;;5071930;28;20052;-59
2020/12/22 04:56:21;;;;;;;25.23;15.25;;;153.80;1971.20;;;;;;5072236;28;20036;-59
2020/12/22 04:58:47;;;;;;;25.55;14.40;;;153.70;1996.80;;;;;;5071860;28;20382;-58
2020/12/22 05:01:15;;;;;;;27.98;14.80;;;153.70;1996.80;;;;;;5071691;28;20097;-58
2020/12/22 05:03:41;;;;;;;24.13;13.93;;;128.80;2022.40;;;;;;5071943;28;20033;-59
2020/12/22 05:06:06;;;;;;;22.75;13.35;;;128.90;2022.40;;;;;;5071634;28;20053;-59
2020/12/22 05:08:32;;;;;;;23.10;13.38;;;128.80;2022.40;;;;;;5071879;28;20420;-59
2020/12/22 05:10:58;;;;;;;24.33;13.18;;;128.70;2022.40;;;;;;5071580;28;20023;-59
2020/12/22 05:13:23;;;;;;;24.80;14.00;;;128.80;2022.40;;;;;;5071795;28;20025;-59
2020/12/22 05:15:51;;;;;;;27.70;14.50;;;128.90;2022.40;;;;;;5071698;28;20023;-58
2020/12/22 05:18:24;;;;;;;27.67;14.32;;;128.90;2022.40;;;;;;5071765;28;20574;-59
2020/12/22 05:20:51;;;;;;;24.77;14.00;;;128.90;2022.40;;;;;;5073413;28;20016;-59
2020/12/22 05:23:18;;;;;;;24.25;13.73;;;128.80;2022.40;;;;;;5075242;28;20021;-58
2020/12/22 05:25:46;;;;;;;23.98;14.02;;;128.80;2022.40;;;;;;5075472;28;20021;-58
2020/12/22 05:28:17;;;;;;;23.60;13.80;;;128.90;2022.40;;;;;;5074977;28;20017;-58
2020/12/22 05:30:47;;;;;;;28.45;15.05;;;128.80;2022.40;;;;;;5075325;28;20032;-59
2020/12/22 05:33:13;;;;;;;26.92;15.07;;;128.90;2022.40;;;;;;5075120;28;20028;-58
2020/12/22 05:35:45;;;;;;;27.42;15.15;;;128.80;2048.00;;;;;;5075249;28;20021;-58
2020/12/22 05:38:12;;;;;;;26.85;14.88;;;128.70;2048.00;;;;;;5056908;28;20505;-58
2020/12/22 05:40:41;;;;;;;23.50;14.13;;;128.80;2022.40;;;;;;5075172;28;20020;-58
2020/12/22 05:43:08;;;;;;;28.83;16.15;;;128.80;2048.00;;;;;;5074877;28;20059;-58
2020/12/22 05:45:35;;;;;;;26.08;14.65;;;128.90;2048.00;;;;;;5073502;28;20073;-58
2020/12/22 05:48:02;;;;;;;28.38;15.60;;;153.60;2022.40;;;;;;5074849;28;20043;-58
2020/12/22 05:50:28;;;;;;;29.95;15.45;;;153.70;1996.80;;;;;;5074613;28;20434;-58
2020/12/22 05:52:55;;;;;;;29.30;15.77;;;153.70;2022.40;;;;;;5074567;28;20495;-58
2020/12/22 05:55:28;;;;;;;28.23;15.77;;;153.70;2022.40;;;;;;5075008;28;20036;-58
2020/12/22 05:58:10;;;;;;;31.48;16.27;;;153.70;2022.40;;;;;;5074720;28;20020;-58
2020/12/22 06:00:38;;;;;;;27.65;16.13;;;153.70;2022.40;;;;;;5074236;28;20027;-59
2020/12/22 06:03:07;;;;;;;29.30;16.48;;;153.60;2022.40;;;;;;5074458;28;20094;-59
2020/12/22 06:05:36;;;;;;;28.55;15.68;;;153.70;2022.40;;;;;;5074352;28;20394;-59
2020/12/22 06:08:03;;;;;;;25.20;15.27;;;153.80;1996.80;;;;;;5074383;28;20036;-58
2020/12/22 06:10:29;;;;;;;27.90;15.43;;;153.90;1996.80;;;;;;5074688;28;20162;-59
2020/12/22 06:12:58;;;;;;;25.70;13.93;;;153.90;1996.80;;;;;;5074351;28;20464;-58
2020/12/22 06:15:24;;;;;;;26.05;14.38;;;154.00;1971.20;;;;;;5074053;28;20052;-59
2020/12/22 06:17:51;;;;;;;23.67;14.13;;;154.00;1971.20;;;;;;5074065;28;20481;-59
2020/12/22 06:20:21;;;;;;;25.25;15.18;;;154.10;1971.20;;;;;;5074741;28;20111;-59
2020/12/22 06:22:48;;;;;;;24.30;13.30;;;154.10;1971.20;;;;;;5073661;28;20024;-59
2020/12/22 06:25:21;;;;;;;26.15;14.95;;;154.20;1945.60;;;;;;5074635;28;20044;-59
2020/12/22 06:27:47;;;;;;;28.25;14.20;;;154.20;1945.60;;;;;;5074042;28;20484;-59
2020/12/22 06:30:17;;;;;;;24.02;13.10;;;154.20;1945.60;;;;;;5073874;28;20107;-59
2020/12/22 06:32:44;;;;;;;26.55;14.15;;;154.40;1920.00;;;;;;5073781;28;20028;-59
2020/12/22 06:35:28;;;;;;;25.23;14.07;;;154.40;1920.00;;;;;;5074028;28;20035;-59
2020/12/22 06:37:55;;;;;;;26.17;15.35;;;154.50;1920.00;;;;;;5073658;28;20017;-59
2020/12/22 06:40:57;;;;;;;26.33;15.00;;;179.20;1920.00;;;;;;5074169;28;20374;-59
2020/12/22 06:43:39;;;;;;;26.13;14.95;;;179.30;1894.40;;;;;;5061504;28;20031;-59
2020/12/22 06:46:34;;;;;;;31.63;15.98;;;179.40;1894.40;;;;;;5073540;28;20082;-58
2020/12/22 06:49:00;;;;;;;31.60;16.17;;;179.40;1894.40;;;;;;5073348;28;20059;-58
2020/12/22 06:51:32;;;;;;;27.45;16.77;;;179.50;1894.40;;;;;;5073363;28;20039;-58
2020/12/22 06:54:05;;;;;;;31.60;17.98;;;179.60;1894.40;;;;;;5073437;28;20103;-58
2020/12/22 06:56:41;;;;;;;27.67;15.60;;;179.60;1920.00;;;;;;5073394;28;20046;-57
2020/12/22 06:59:11;;;;;;;30.48;17.50;;;179.70;1868.80;;;;;;5073490;28;20414;-57
2020/12/22 07:01:47;;;;;;;30.77;17.95;;;179.70;1868.80;;;;;;5073149;28;20108;-58
2020/12/22 07:04:20;;;;;;;30.98;17.95;;;179.70;1868.80;;;;;;5073389;28;20028;-59
2020/12/22 07:06:58;;;;;;;35.80;17.98;;;179.80;1843.20;;;;;;5072937;28;20504;-59
2020/12/22 07:09:32;;;;;;;27.38;16.08;;;179.90;1843.20;;;;;;5073305;28;20028;-59
2020/12/22 07:12:11;;;;;;;29.88;16.35;;;179.90;1843.20;;;;;;5073544;28;20029;-58
2020/12/22 07:14:41;;;;;;;31.25;18.50;;;180.00;1817.60;;;;;;5073117;28;20025;-58
2020/12/22 07:17:07;;;;;;;32.83;17.30;;;180.10;1817.60;;;;;;5072716;28;20016;-59
2020/12/22 07:19:35;;;;;;;34.78;18.77;;;180.10;1792.00;;;;;;5073097;28;20070;-57
2020/12/22 07:22:06;;;;;;;36.92;17.60;;;180.10;1792.00;;;;;;5072885;28;20028;-57
2020/12/22 07:24:33;;;;;;;33.72;17.70;;;204.80;1792.00;;;;;;5073124;28;20094;-57
2020/12/22 07:27:00;;;;;;;33.35;17.23;;;204.90;1792.00;;;;;;5072435;28;20032;-56
2020/12/22 07:29:26;;;;;;;30.88;18.15;;;205.00;1766.40;;;;;;5072164;28;20024;-56
2020/12/22 07:31:52;;;;;;;35.58;19.63;;;205.00;1766.40;;;;;;5072190;28;20020;-57
2020/12/22 07:34:19;;;;;;;34.30;18.92;;;205.10;1766.40;;;;;;5072233;28;20024;-57
2020/12/22 07:36:46;;;;;;;30.63;18.77;;;205.10;1740.80;;;;;;5072424;28;20020;-57
2020/12/22 07:39:21;;;;;;;35.83;19.45;;;205.10;1766.40;;;;;;5072580;28;20021;-57
2020/12/22 07:41:47;;;;;;;34.75;18.92;;;205.10;1766.40;;;;;;5072713;28;20019;-57
2020/12/22 07:44:31;;;;;;;35.45;20.55;;;205.20;1740.80;;;;;;5071831;28;20033;-56
2020/12/22 07:46:56;;;;;;;38.03;20.55;;;205.30;1740.80;;;;;;5071151;28;20096;-57
2020/12/22 07:49:22;;;;;;;37.85;20.55;;;205.40;1740.80;;;;;;5072798;28;20100;-57
2020/12/22 07:51:48;;;;;;;39.65;22.85;;;205.50;1715.20;;;;;;5072590;28;20058;-58
2020/12/22 07:54:15;;;;;;;38.92;21.58;;;205.60;1740.80;;;;;;5072597;28;20026;-57
2020/12/22 07:56:43;;;;;;;39.75;21.67;;;205.70;1740.80;;;;;;5072371;28;20036;-58
2020/12/22 07:59:13;;;;;;;33.30;19.60;;;205.70;1715.20;;;;;;5072147;28;20064;-58
2020/12/22 08:01:41;;;;;;;35.72;20.75;;;205.70;1740.80;;;;;;5070926;28;20036;-58
2020/12/22 08:04:20;;;;;;;36.25;20.85;;;205.70;1740.80;;;;;;5072564;28;20029;-58
2020/12/22 08:06:56;;;;;;;35.15;20.02;;;205.70;1740.80;;;;;;5072321;28;20048;-58
2020/12/22 08:09:32;;;;;;;35.67;19.98;;;230.40;1715.20;;;;;;5072159;28;20028;-58
2020/12/22 08:12:05;;;;;;;36.08;20.48;;;230.40;1715.20;;;;;;5072612;28;20028;-58
2020/12/22 08:14:39;;;;;;;34.03;19.95;;;230.50;1715.20;;;;;;5072546;28;20024;-58
2020/12/22 08:17:14;;;;;;;37.75;21.15;;;230.60;1689.60;;;;;;5072045;28;20020;-58
2020/12/22 08:19:41;;;;;;;37.33;21.58;;;230.60;1689.60;;;;;;5072230;28;20032;-59
2020/12/22 08:22:07;;;;;;;41.72;23.38;;;230.70;1664.00;;;;;;5072463;28;20247;-58
2020/12/22 08:24:37;;;;;;;39.08;22.38;;;230.80;1664.00;;;;;;5072354;28;20031;-58
2020/12/22 08:27:05;;;;;;;38.97;23.00;;;230.90;1638.40;;;;;;5072072;28;20024;-58
2020/12/22 08:29:30;;;;;;;40.92;23.27;;;230.70;1664.00;;;;;;5053946;28;20371;-58
2020/12/22 08:32:00;;;;;;;39.80;23.65;;;230.70;1664.00;;;;;;5071987;28;20023;-58
2020/12/22 08:34:27;;;;;;;41.55;24.83;;;230.60;1689.60;;;;;;5072059;28;20034;-58
2020/12/22 08:36:52;;;;;;;44.28;24.83;;;230.70;1664.00;;;;;;5072229;28;20024;-58
2020/12/22 08:39:26;;;;;;;42.60;24.02;;;230.70;1664.00;;;;;;5071677;28;20044;-58
2020/12/22 08:41:57;;;;;;;42.38;23.90;;;230.90;1638.40;;;;;;5072046;28;20056;-58
2020/12/22 08:44:25;;;;;;;40.30;22.90;;;230.90;1638.40;;;;;;5072112;28;20020;-58
2020/12/22 08:46:52;;;;;;;41.47;24.60;;;230.90;1638.40;;;;;;5071885;28;20021;-58
2020/12/22 08:49:21;;;;;;;37.03;22.75;;;231.20;1612.80;;;;;;5072263;28;20028;-58
2020/12/22 08:51:48;;;;;;;45.53;24.67;;;231.20;1612.80;;;;;;5072053;28;20020;-59
2020/12/22 08:54:14;;;;;;;42.63;24.00;;;231.10;1612.80;;;;;;5073054;28;20108;-58
2020/12/22 08:56:40;;;;;;;40.22;24.05;;;231.20;1612.80;;;;;;5072850;28;20108;-59
2020/12/22 08:59:07;;;;;;;40.00;23.73;;;231.30;1612.80;;;;;;5057532;28;20032;-58
2020/12/22 09:01:43;;;;;;;45.25;24.33;;;256.00;1587.20;;;;;;5075653;28;20021;-58
2020/12/22 09:04:10;;;;;;;41.33;23.40;;;256.10;1587.20;;;;;;5075450;28;20032;-58
2020/12/22 09:06:43;;;;;;;39.13;23.05;;;256.10;1587.20;;;;;;5075025;28;20044;-58
2020/12/22 09:09:17;;;;;;;45.35;24.20;;;256.40;1536.00;;;;;;5075626;28;20055;-59
2020/12/22 09:11:44;;;;;;;41.92;24.40;;;256.30;1561.60;;;;;;5075250;28;20021;-58
2020/12/22 09:14:18;;;;;;;36.72;21.92;;;256.40;1561.60;;;;;;5075542;28;20021;-59
2020/12/22 09:16:55;;;;;;;36.95;21.67;;;256.10;1561.60;;;;;;5075398;28;20530;-58
2020/12/22 09:19:39;;;;;;;33.75;21.55;;;256.10;1561.60;;;;;;5075320;28;20064;-58
2020/12/22 09:22:06;;;;;;;36.22;23.33;;;256.50;1561.60;;;;;;5075217;28;20470;-58
2020/12/22 09:24:33;;;;;;;44.40;23.63;;;256.70;1536.00;;;;;;5075377;28;20404;-58
2020/12/22 09:27:13;;;;;;;38.92;21.17;;;256.70;1536.00;;;;;;5075243;28;20494;-58
2020/12/22 09:29:40;;;;;;;37.63;22.23;;;256.70;1510.40;;;;;;5075273;28;20038;-58
2020/12/22 09:32:09;;;;;;;41.40;22.23;;;256.90;1484.80;;;;;;5075026;28;20021;-58
2020/12/22 09:34:36;;;;;;;37.42;23.13;;;256.90;1484.80;;;;;;5075124;28;20081;-59
2020/12/22 09:37:05;;;;;;;39.75;23.55;;;256.90;1510.40;;;;;;5074786;28;20039;-59
2020/12/22 09:39:33;;;;;;;41.10;23.40;;;256.80;1536.00;;;;;;5057339;28;20530;-58
2020/12/22 09:41:59;;;;;;;41.03;23.13;;;281.60;1510.40;;;;;;5074888;28;20112;-59
2020/12/22 09:44:25;;;;;;;38.38;23.52;;;281.60;1510.40;;;;;;5074883;28;20104;-59
2020/12/22 09:46:53;;;;;;;36.33;21.25;;;281.70;1510.40;;;;;;5074333;28;20024;-58
2020/12/22 09:49:20;;;;;;;39.75;24.35;;;281.60;1510.40;;;;;;5074804;28;20493;-58
2020/12/22 09:51:46;;;;;;;41.42;24.77;;;281.60;1536.00;;;;;;5074820;28;20166;-58
2020/12/22 09:54:12;;;;;;;44.30;25.00;;;281.60;1536.00;;;;;;5074848;28;20541;-58
2020/12/22 09:56:38;;;;;;;42.65;23.70;;;281.70;1510.40;;;;;;5074938;28;20016;-58
2020/12/22 09:59:04;;;;;;;42.75;24.73;;;256.70;1536.00;;;;;;5074612;28;20062;-58
2020/12/22 10:01:30;;;;;;;45.25;25.77;;;256.80;1536.00;;;;;;5074410;28;20174;-59
2020/12/22 10:03:55;;;;;;;46.15;26.90;;;256.60;1536.00;;;;;;5074496;28;20037;-58
2020/12/22 10:06:23;;;;;;;48.20;26.02;;;256.50;1561.60;;;;;;5073275;28;20061;-58
2020/12/22 10:08:49;;;;;;;45.22;25.25;;;256.50;1561.60;;;;;;5074217;28;20485;-57
2020/12/22 10:11:16;;;;;;;47.78;24.45;;;256.50;1561.60;;;;;;5073489;28;20023;-58
2020/12/22 10:13:42;;;;;;;46.33;27.58;;;256.50;1561.60;;;;;;5073755;28;20066;-57
2020/12/22 10:16:09;;;;;;;47.85;27.75;;;256.40;1612.80;;;;;;5073626;28;20032;-57
2020/12/22 10:18:36;;;;;;;44.85;27.20;;;256.30;1612.80;;;;;;5073208;28;20071;-58
2020/12/22 10:21:06;;;;;;;45.53;28.77;;;256.40;1612.80;;;;;;5073573;28;20059;-57
2020/12/22 10:23:32;;;;;;;47.80;27.70;;;256.20;1638.40;;;;;;5073566;28;20145;-58
2020/12/22 10:25:58;;;;;;;46.75;26.80;;;256.20;1612.80;;;;;;5073371;28;20483;-58
2020/12/22 10:28:24;;;;;;;52.72;30.42;;;256.40;1612.80;;;;;;5073434;28;20111;-58
2020/12/22 10:30:49;;;;;;;51.90;29.00;;;256.40;1612.80;;;;;;5073855;28;20099;-58
2020/12/22 10:33:15;;;;;;;51.60;31.08;;;256.50;1612.80;;;;;;5072968;28;20031;-58
2020/12/22 10:35:41;;;;;;;45.72;27.80;;;256.50;1587.20;;;;;;5073413;28;20419;-58
2020/12/22 10:38:06;;;;;;;48.47;28.92;;;256.50;1612.80;;;;;;5073168;28;20025;-60
2020/12/22 10:40:32;;;;;;;46.00;27.60;;;256.60;1587.20;;;;;;5072103;28;20059;-58
2020/12/22 10:42:58;;;;;;;44.15;27.08;;;256.60;1612.80;;;;;;5073300;28;20013;-57
2020/12/22 10:45:24;;;;;;;49.33;27.55;;;256.80;1587.20;;;;;;5073286;28;20032;-57
2020/12/22 10:47:50;;;;;;;48.65;28.60;;;256.90;1587.20;;;;;;5072865;28;20374;-58
2020/12/22 10:50:15;;;;;;;48.75;28.98;;;256.80;1561.60;;;;;;5072817;28;20028;-58
2020/12/22 10:52:41;;;;;;;49.65;29.20;;;256.90;1587.20;;;;;;5072751;28;20070;-58
2020/12/22 10:55:06;;;;;;;49.72;28.60;;;256.90;1587.20;;;;;;5072776;28;20052;-60
2020/12/22 10:57:32;;;;;;;50.80;30.20;;;281.70;1587.20;;;;;;5072548;28;20017;-58
2020/12/22 10:59:58;;;;;;;47.13;29.13;;;281.70;1587.20;;;;;;5072708;28;20040;-58
2020/12/22 11:02:23;;;;;;;48.15;29.58;;;281.70;1587.20;;;;;;5054384;28;20120;-58
2020/12/22 11:04:53;;;;;;;46.08;27.98;;;281.90;1561.60;;;;;;5072477;28;20036;-58
2020/12/22 11:07:26;;;;;;;45.42;27.90;;;282.10;1561.60;;;;;;5072217;28;20029;-58
2020/12/22 11:09:53;;;;;;;44.03;26.92;;;282.30;1536.00;;;;;;5070360;28;20028;-59
2020/12/22 11:12:18;;;;;;;45.25;26.65;;;282.50;1510.40;;;;;;5072496;28;20099;-58
2020/12/22 11:14:44;;;;;;;43.60;27.00;;;307.40;1510.40;;;;;;5072250;28;20597;-58
2020/12/22 11:17:09;;;;;;;50.40;28.60;;;307.50;1510.40;;;;;;5071896;28;20025;-59
2020/12/22 11:19:36;;;;;;;46.35;27.67;;;307.70;1484.80;;;;;;5071934;28;20127;-59
2020/12/22 11:22:02;;;;;;;44.67;28.45;;;308.00;1433.60;;;;;;5072227;28;20025;-59
2020/12/22 11:24:28;;;;;;;48.03;29.13;;;332.80;1459.20;;;;;;5037971;28;20028;-58
2020/12/22 11:26:53;;;;;;;44.17;28.55;;;332.80;1459.20;;;;;;5072180;28;20030;-58
2020/12/22 11:29:19;;;;;;;43.33;28.25;;;333.10;1433.60;;;;;;5072513;28;20078;-58
2020/12/22 11:31:50;;;;;;;50.15;28.95;;;333.20;1408.00;;;;;;5072184;28;20056;-58
2020/12/22 11:34:17;;;;;;;40.60;25.95;;;333.50;1408.00;;;;;;5072223;28;20486;-60
2020/12/22 11:36:51;;;;;;;46.17;28.88;;;333.40;1408.00;;;;;;5071573;28;20043;-58
2020/12/22 11:39:17;;;;;;;41.50;26.30;;;333.60;1382.40;;;;;;5072276;28;20064;-59
2020/12/22 11:41:43;;;;;;;42.80;27.80;;;333.30;1408.00;;;;;;5072455;28;20055;-59
2020/12/22 11:44:09;;;;;;;43.83;27.67;;;333.30;1408.00;;;;;;5072337;28;20048;-58
2020/12/22 11:46:35;;;;;;;42.03;27.02;;;333.10;1433.60;;;;;;5070635;28;20522;-58
2020/12/22 11:49:01;;;;;;;43.67;26.73;;;333.10;1433.60;;;;;;5071993;28;20059;-59
2020/12/22 11:51:27;;;;;;;47.53;29.13;;;333.00;1433.60;;;;;;5071546;28;20028;-58
2020/12/22 11:53:52;;;;;;;45.08;26.58;;;308.10;1433.60;;;;;;5071971;28;20020;-59
2020/12/22 11:56:18;;;;;;;44.78;28.80;;;308.00;1459.20;;;;;;5071962;28;20431;-58
2020/12/22 11:58:44;;;;;;;47.28;30.00;;;308.00;1459.20;;;;;;5071749;28;20486;-58
2020/12/22 12:01:10;;;;;;;45.03;28.23;;;307.90;1459.20;;;;;;5069117;28;20103;-58